Terminal Aerodrome Forecast
Issued by NWS

Home | Current Version | Previous Version | Text Only | Print | Product List | Glossary On
Versions: 1 2 3 4 5 6 7 8 9 10 11 12 13 14 15 16 17 18 19 20 21 22 23 24 25 26 27 28 29 30
380
FTUS44 KFWD 261141 CCA
TAFFTW
TAF COR
KFTW 261141Z 2612/2712 17012KT P6SM VCSH BKN015
      TEMPO 2613/2616 5SM -RA
     FM261700 17016KT P6SM VCTS OVC035CB
     FM262000 17015G25KT P6SM VCSH OVC040
     FM270200 18014G24KT 6SM -TSRA OVC045CB
     FM270600 18015KT 6SM -SHRA OVC008
     FM271100 16010KT P6SM VCSH OVC015=

USA.gov is the U.S. government's official web portal to all federal, state and local government web resources and services.